sensor_id;sensor_type;location;lat;lon;timestamp;pressure;altitude;pressure_sealevel;temperature;humidity
67052;BME280;53957;47.222;18.670;2024-03-23T08:08:56;99568.28;;;16.42;79.73
67052;BME280;53957;47.222;18.670;2024-03-23T08:12:01;99562.59;;;16.85;75.88
67052;BME280;53957;47.222;18.670;2024-03-23T08:15:06;99560.59;;;16.94;80.06
67052;BME280;53957;47.222;18.670;2024-03-23T08:18:09;99552.91;;;17.09;76.81
67052;BME280;53957;47.222;18.670;2024-03-23T08:21:12;99566.91;;;17.43;75.24
67052;BME280;53957;47.222;18.670;2024-03-23T08:24:14;99558.59;;;17.64;75.23
67052;BME280;53957;47.222;18.670;2024-03-23T08:27:16;99557.94;;;18.15;68.29
67052;BME280;53957;47.222;18.670;2024-03-23T08:30:18;99545.41;;;18.23;67.86
67052;BME280;53957;47.222;18.670;2024-03-23T08:33:21;99546.34;;;18.30;71.75
67052;BME280;53957;47.222;18.670;2024-03-23T08:36:23;99539.75;;;18.28;67.45
67052;BME280;53957;47.222;18.670;2024-03-23T08:39:26;99535.37;;;17.91;68.64
67052;BME280;53957;47.222;18.670;2024-03-23T08:42:27;99535.22;;;18.16;69.23
67052;BME280;53957;47.222;18.670;2024-03-23T08:45:29;99532.91;;;18.50;67.16
67052;BME280;53957;47.222;18.670;2024-03-23T08:48:31;99534.53;;;18.55;61.19
67052;BME280;53957;47.222;18.670;2024-03-23T08:51:33;99529.97;;;18.23;65.54
67052;BME280;53957;47.222;18.670;2024-03-23T08:54:35;99522.56;;;18.91;64.02
67052;BME280;53957;47.222;18.670;2024-03-23T08:57:37;99520.81;;;18.99;58.64
67052;BME280;53957;47.222;18.670;2024-03-23T09:00:39;99518.88;;;18.99;57.63
67052;BME280;53957;47.222;18.670;2024-03-23T09:03:41;99513.47;;;18.99;55.88
67052;BME280;53957;47.222;18.670;2024-03-23T09:06:43;99502.12;;;19.13;54.49
67052;BME280;53957;47.222;18.670;2024-03-23T09:09:45;99512.16;;;19.79;54.11
67052;BME280;53957;47.222;18.670;2024-03-23T09:12:47;99497.31;;;19.46;56.66
67052;BME280;53957;47.222;18.670;2024-03-23T09:15:50;99494.50;;;19.62;57.58
67052;BME280;53957;47.222;18.670;2024-03-23T09:18:55;99496.91;;;19.90;53.78
67052;BME280;53957;47.222;18.670;2024-03-23T09:21:57;99498.53;;;20.52;49.86
67052;BME280;53957;47.222;18.670;2024-03-23T09:24:59;99481.06;;;20.19;49.48
67052;BME280;53957;47.222;18.670;2024-03-23T09:28:01;99480.81;;;20.28;47.85
67052;BME280;53957;47.222;18.670;2024-03-23T09:31:06;99479.09;;;19.89;47.29
67052;BME280;53957;47.222;18.670;2024-03-23T09:34:16;99493.69;;;20.35;47.71
67052;BME280;53957;47.222;18.670;2024-03-23T09:37:18;99476.88;;;20.52;47.08
67052;BME280;53957;47.222;18.670;2024-03-23T09:40:20;99466.06;;;19.99;48.56
67052;BME280;53957;47.222;18.670;2024-03-23T09:43:23;99461.56;;;20.06;47.53
67052;BME280;53957;47.222;18.670;2024-03-23T09:46:25;99460.16;;;20.77;46.13
67052;BME280;53957;47.222;18.670;2024-03-23T09:49:27;99453.03;;;20.99;44.13
67052;BME280;53957;47.222;18.670;2024-03-23T09:52:29;99451.72;;;20.55;44.22
67052;BME280;53957;47.222;18.670;2024-03-23T09:55:32;99442.53;;;20.30;45.59
67052;BME280;53957;47.222;18.670;2024-03-23T09:58:33;99435.56;;;19.75;46.84
67052;BME280;53957;47.222;18.670;2024-03-23T10:01:35;99433.56;;;19.95;46.70
67052;BME280;53957;47.222;18.670;2024-03-23T10:04:39;99422.97;;;20.13;46.11
67052;BME280;53957;47.222;18.670;2024-03-23T10:07:41;99417.38;;;19.75;47.28
67052;BME280;53957;47.222;18.670;2024-03-23T10:10:44;99418.94;;;20.00;45.64
67052;BME280;53957;47.222;18.670;2024-03-23T10:13:47;99410.22;;;19.83;46.99
67052;BME280;53957;47.222;18.670;2024-03-23T10:16:49;99401.72;;;19.61;47.51
67052;BME280;53957;47.222;18.670;2024-03-23T10:19:52;99409.97;;;20.26;46.19
67052;BME280;53957;47.222;18.670;2024-03-23T10:22:54;99409.97;;;20.90;45.57
67052;BME280;53957;47.222;18.670;2024-03-23T10:26:12;99406.31;;;21.17;41.97
67052;BME280;53957;47.222;18.670;2024-03-23T10:29:17;99393.78;;;21.01;41.30
67052;BME280;53957;47.222;18.670;2024-03-23T10:32:19;99397.72;;;20.70;41.29
67052;BME280;53957;47.222;18.670;2024-03-23T10:35:21;99387.56;;;20.59;42.91
67052;BME280;53957;47.222;18.670;2024-03-23T10:38:29;99380.34;;;21.16;41.46
67052;BME280;53957;47.222;18.670;2024-03-23T10:41:32;99383.31;;;20.62;43.11
67052;BME280;53957;47.222;18.670;2024-03-23T10:44:34;99383.47;;;20.77;42.42
67052;BME280;53957;47.222;18.670;2024-03-23T10:47:37;99366.41;;;20.72;42.80
67052;BME280;53957;47.222;18.670;2024-03-23T10:50:39;99364.59;;;20.46;42.43
67052;BME280;53957;47.222;18.670;2024-03-23T10:53:41;99358.28;;;20.35;43.60
67052;BME280;53957;47.222;18.670;2024-03-23T10:56:44;99354.50;;;20.47;42.05
67052;BME280;53957;47.222;18.670;2024-03-23T10:59:48;99343.94;;;20.00;43.28
67052;BME280;53957;47.222;18.670;2024-03-23T11:02:50;99348.16;;;20.32;42.87
67052;BME280;53957;47.222;18.670;2024-03-23T11:05:52;99340.00;;;20.66;42.50
67052;BME280;53957;47.222;18.670;2024-03-23T11:08:54;99320.81;;;20.78;42.76
67052;BME280;53957;47.222;18.670;2024-03-23T11:11:56;99330.72;;;20.63;41.42
67052;BME280;53957;47.222;18.670;2024-03-23T11:15:04;99318.31;;;20.62;41.77
67052;BME280;53957;47.222;18.670;2024-03-23T11:18:07;99311.19;;;20.47;41.05
67052;BME280;53957;47.222;18.670;2024-03-23T11:21:11;99313.47;;;20.41;41.92
67052;BME280;53957;47.222;18.670;2024-03-23T11:24:33;99304.22;;;20.49;40.76
67052;BME280;53957;47.222;18.670;2024-03-23T11:27:35;99293.34;;;20.83;41.62
67052;BME280;53957;47.222;18.670;2024-03-23T11:30:37;99291.63;;;21.09;40.26
67052;BME280;53957;47.222;18.670;2024-03-23T11:33:39;99289.59;;;21.54;38.99
67052;BME280;53957;47.222;18.670;2024-03-23T11:36:44;99279.16;;;21.60;38.48
67052;BME280;53957;47.222;18.670;2024-03-23T11:39:46;99276.91;;;21.10;38.64
67052;BME280;53957;47.222;18.670;2024-03-23T11:42:56;99268.00;;;21.13;39.21
67052;BME280;53957;47.222;18.670;2024-03-23T11:45:58;99259.78;;;21.62;39.19
67052;BME280;53957;47.222;18.670;2024-03-23T11:49:01;99266.22;;;21.39;38.47
67052;BME280;53957;47.222;18.670;2024-03-23T11:52:02;99249.62;;;20.85;38.95
67052;BME280;53957;47.222;18.670;2024-03-23T11:55:05;99252.91;;;20.64;39.89
67052;BME280;53957;47.222;18.670;2024-03-23T11:58:10;99238.06;;;20.95;38.80
67052;BME280;53957;47.222;18.670;2024-03-23T12:01:12;99234.91;;;20.86;39.73
67052;BME280;53957;47.222;18.670;2024-03-23T12:04:27;99233.16;;;20.59;40.51
67052;BME280;53957;47.222;18.670;2024-03-23T12:07:30;99219.91;;;20.54;39.38
67052;BME280;53957;47.222;18.670;2024-03-23T12:10:32;99224.41;;;20.36;39.21
67052;BME280;53957;47.222;18.670;2024-03-23T12:13:34;99204.19;;;20.26;40.31
67052;BME280;53957;47.222;18.670;2024-03-23T12:16:36;99194.31;;;20.41;40.21
67052;BME280;53957;47.222;18.670;2024-03-23T12:19:38;99191.84;;;20.25;40.41
67052;BME280;53957;47.222;18.670;2024-03-23T12:22:41;99177.13;;;20.26;41.56
67052;BME280;53957;47.222;18.670;2024-03-23T12:25:43;99187.09;;;20.15;41.12
67052;BME280;53957;47.222;18.670;2024-03-23T12:28:45;99183.63;;;20.14;41.78
67052;BME280;53957;47.222;18.670;2024-03-23T12:31:46;99168.44;;;20.47;42.72
67052;BME280;53957;47.222;18.670;2024-03-23T12:34:48;99172.00;;;20.14;40.73
67052;BME280;53957;47.222;18.670;2024-03-23T12:37:50;99161.75;;;20.34;40.69
67052;BME280;53957;47.222;18.670;2024-03-23T12:40:52;99161.53;;;20.12;40.26
67052;BME280;53957;47.222;18.670;2024-03-23T12:43:54;99163.09;;;20.13;39.33
67052;BME280;53957;47.222;18.670;2024-03-23T12:46:56;99157.81;;;20.27;39.59
67052;BME280;53957;47.222;18.670;2024-03-23T12:49:58;99156.38;;;19.96;39.90
67052;BME280;53957;47.222;18.670;2024-03-23T12:53:00;99150.56;;;19.98;40.05
67052;BME280;53957;47.222;18.670;2024-03-23T12:56:02;99144.34;;;19.93;39.83
67052;BME280;53957;47.222;18.670;2024-03-23T13:21:04;99119.59;;;19.88;41.29
67052;BME280;53957;47.222;18.670;2024-03-23T13:24:06;99104.50;;;19.53;39.63
67052;BME280;53957;47.222;18.670;2024-03-23T13:27:08;99112.59;;;19.87;39.02
67052;BME280;53957;47.222;18.670;2024-03-23T13:30:12;99102.56;;;19.87;40.16
67052;BME280;53957;47.222;18.670;2024-03-23T13:33:14;99103.69;;;19.86;40.16
67052;BME280;53957;47.222;18.670;2024-03-23T13:36:16;99089.81;;;19.50;40.52
67052;BME280;53957;47.222;18.670;2024-03-23T13:39:17;99086.69;;;19.48;41.13
67052;BME280;53957;47.222;18.670;2024-03-23T13:42:20;99081.53;;;19.36;43.22
67052;BME280;53957;47.222;18.670;2024-03-23T13:45:22;99072.59;;;19.31;42.92
67052;BME280;53957;47.222;18.670;2024-03-23T13:48:25;99077.59;;;19.29;43.55
67052;BME280;53957;47.222;18.670;2024-03-23T13:51:28;99072.69;;;19.39;44.22
67052;BME280;53957;47.222;18.670;2024-03-23T13:54:30;99073.63;;;19.54;44.49
67052;BME280;53957;47.222;18.670;2024-03-23T13:57:33;99069.66;;;19.44;44.89
67052;BME280;53957;47.222;18.670;2024-03-23T14:00:35;99068.25;;;19.57;45.30
67052;BME280;53957;47.222;18.670;2024-03-23T14:03:38;99061.75;;;19.28;45.42
67052;BME280;53957;47.222;18.670;2024-03-23T14:06:39;99072.69;;;19.39;45.37
67052;BME280;53957;47.222;18.670;2024-03-23T14:09:42;99067.81;;;19.18;45.07
67052;BME280;53957;47.222;18.670;2024-03-23T14:12:44;99066.47;;;19.01;45.87
67052;BME280;53957;47.222;18.670;2024-03-23T14:15:46;99061.94;;;18.81;45.65
67052;BME280;53957;47.222;18.670;2024-03-23T14:18:48;99054.22;;;18.80;46.32
67052;BME280;53957;47.222;18.670;2024-03-23T14:21:50;99053.34;;;18.72;47.04
67052;BME280;53957;47.222;18.670;2024-03-23T14:24:51;99060.75;;;18.79;47.00
67052;BME280;53957;47.222;18.670;2024-03-23T14:27:53;99047.84;;;18.65;47.66
67052;BME280;53957;47.222;18.670;2024-03-23T14:30:56;99052.91;;;18.70;48.24
67052;BME280;53957;47.222;18.670;2024-03-23T14:33:58;99049.69;;;18.30;49.18
67052;BME280;53957;47.222;18.670;2024-03-23T14:37:00;99048.53;;;18.31;48.61
67052;BME280;53957;47.222;18.670;2024-03-23T14:40:03;99043.59;;;18.10;49.84
67052;BME280;53957;47.222;18.670;2024-03-23T14:43:05;99044.84;;;18.16;51.12
67052;BME280;53957;47.222;18.670;2024-03-23T14:49:14;99040.59;;;17.92;50.01
67052;BME280;53957;47.222;18.670;2024-03-23T14:52:19;99040.16;;;17.90;50.18
67052;BME280;53957;47.222;18.670;2024-03-23T14:55:21;99038.13;;;17.83;51.64
67052;BME280;53957;47.222;18.670;2024-03-23T14:58:23;99040.47;;;17.85;49.82
67052;BME280;53957;47.222;18.670;2024-03-23T15:01:26;99044.31;;;17.84;51.11
67052;BME280;53957;47.222;18.670;2024-03-23T15:04:28;99042.34;;;17.81;50.48
67052;BME280;53957;47.222;18.670;2024-03-23T15:07:31;99035.81;;;17.82;51.22
67052;BME280;53957;47.222;18.670;2024-03-23T15:10:33;99033.13;;;17.82;50.93
67052;BME280;53957;47.222;18.670;2024-03-23T15:13:36;99042.16;;;17.93;51.88
67052;BME280;53957;47.222;18.670;2024-03-23T15:16:38;99036.22;;;17.84;50.90
67052;BME280;53957;47.222;18.670;2024-03-23T15:19:40;99041.25;;;17.85;52.07
67052;BME280;53957;47.222;18.670;2024-03-23T15:22:44;99044.34;;;17.87;51.59
67052;BME280;53957;47.222;18.670;2024-03-23T15:25:46;99046.47;;;17.75;52.26
67052;BME280;53957;47.222;18.670;2024-03-23T15:28:48;99042.69;;;17.79;52.92
67052;BME280;53957;47.222;18.670;2024-03-23T15:31:59;99039.22;;;17.79;54.74
67052;BME280;53957;47.222;18.670;2024-03-23T15:35:01;99047.91;;;17.68;53.32
67052;BME280;53957;47.222;18.670;2024-03-23T15:38:04;99045.66;;;17.70;53.49
67052;BME280;53957;47.222;18.670;2024-03-23T15:41:06;99037.56;;;17.70;54.47
67052;BME280;53957;47.222;18.670;2024-03-23T15:44:09;99042.50;;;17.68;56.91
67052;BME280;53957;47.222;18.670;2024-03-23T15:47:11;99043.38;;;17.53;56.69
67052;BME280;53957;47.222;18.670;2024-03-23T15:50:13;99047.34;;;17.59;57.47
67052;BME280;53957;47.222;18.670;2024-03-23T15:53:15;99045.38;;;17.56;57.60
67052;BME280;53957;47.222;18.670;2024-03-23T15:56:17;99045.25;;;17.49;59.48
67052;BME280;53957;47.222;18.670;2024-03-23T15:59:19;99044.41;;;17.45;63.25
67052;BME280;53957;47.222;18.670;2024-03-23T16:02:21;99045.06;;;17.38;56.72
67052;BME280;53957;47.222;18.670;2024-03-23T16:05:23;99043.41;;;17.33;55.33
67052;BME280;53957;47.222;18.670;2024-03-23T16:08:25;99047.34;;;17.36;55.07
67052;BME280;53957;47.222;18.670;2024-03-23T16:11:28;99042.94;;;17.28;54.77
67052;BME280;53957;47.222;18.670;2024-03-23T16:14:30;99031.53;;;17.15;54.48
67052;BME280;53957;47.222;18.670;2024-03-23T16:17:32;99033.81;;;17.13;54.20
67052;BME280;53957;47.222;18.670;2024-03-23T16:20:36;99034.28;;;17.18;52.56
67052;BME280;53957;47.222;18.670;2024-03-23T16:23:39;99030.25;;;17.09;52.56
67052;BME280;53957;47.222;18.670;2024-03-23T16:26:43;99035.09;;;16.99;53.63
67052;BME280;53957;47.222;18.670;2024-03-23T16:29:47;99034.75;;;16.85;55.09
67052;BME280;53957;47.222;18.670;2024-03-23T16:32:49;99032.00;;;16.81;57.07
67052;BME280;53957;47.222;18.670;2024-03-23T16:36:10;99027.78;;;16.64;56.01
67052;BME280;53957;47.222;18.670;2024-03-23T16:39:15;99032.97;;;16.53;56.37
67052;BME280;53957;47.222;18.670;2024-03-23T16:42:18;99026.50;;;16.58;54.93
67052;BME280;53957;47.222;18.670;2024-03-23T16:45:20;99026.37;;;16.51;56.04
67052;BME280;53957;47.222;18.670;2024-03-23T16:48:26;99030.47;;;16.45;56.85
67052;BME280;53957;47.222;18.670;2024-03-23T16:51:28;99027.28;;;16.39;56.99
67052;BME280;53957;47.222;18.670;2024-03-23T16:54:30;99030.59;;;16.32;59.93
67052;BME280;53957;47.222;18.670;2024-03-23T16:57:32;99022.69;;;16.23;62.67
67052;BME280;53957;47.222;18.670;2024-03-23T17:00:35;99021.75;;;16.16;60.82
67052;BME280;53957;47.222;18.670;2024-03-23T17:03:37;99034.63;;;16.06;65.22
67052;BME280;53957;47.222;18.670;2024-03-23T17:06:40;99123.25;;;15.30;75.41
67052;BME280;53957;47.222;18.670;2024-03-23T17:09:47;99133.19;;;14.52;77.28
67052;BME280;53957;47.222;18.670;2024-03-23T17:12:50;99142.25;;;13.89;80.11
67052;BME280;53957;47.222;18.670;2024-03-23T17:15:51;99146.84;;;13.55;86.13
67052;BME280;53957;47.222;18.670;2024-03-23T17:18:53;99154.69;;;13.09;91.57
67052;BME280;53957;47.222;18.670;2024-03-23T17:21:55;99155.75;;;12.86;94.21
67052;BME280;53957;47.222;18.670;2024-03-23T17:24:57;99179.28;;;12.81;94.78
67052;BME280;53957;47.222;18.670;2024-03-23T17:27:59;99174.50;;;12.56;92.85
67052;BME280;53957;47.222;18.670;2024-03-23T17:31:02;99167.00;;;12.41;91.46
67052;BME280;53957;47.222;18.670;2024-03-23T17:34:04;99189.56;;;12.22;94.55
67052;BME280;53957;47.222;18.670;2024-03-23T17:37:06;99193.97;;;12.10;96.74
67052;BME280;53957;47.222;18.670;2024-03-23T17:40:08;99202.16;;;12.13;97.63
67052;BME280;53957;47.222;18.670;2024-03-23T17:43:11;99205.31;;;12.06;95.82
67052;BME280;53957;47.222;18.670;2024-03-23T17:46:13;99212.69;;;12.01;98.76
67052;BME280;53957;47.222;18.670;2024-03-23T17:49:15;99207.84;;;12.03;98.41
67052;BME280;53957;47.222;18.670;2024-03-23T17:52:17;99215.69;;;11.90;100.00
67052;BME280;53957;47.222;18.670;2024-03-23T17:55:19;99214.72;;;11.77;100.00
67052;BME280;53957;47.222;18.670;2024-03-23T17:58:22;99222.13;;;11.72;100.00
67052;BME280;53957;47.222;18.670;2024-03-23T18:01:25;99224.66;;;11.59;100.00
67052;BME280;53957;47.222;18.670;2024-03-23T18:04:27;99261.41;;;11.63;100.00
67052;BME280;53957;47.222;18.670;2024-03-23T18:07:30;99269.72;;;10.94;98.25
67052;BME280;53957;47.222;18.670;2024-03-23T18:10:32;99268.28;;;10.88;99.01
67052;BME280;53957;47.222;18.670;2024-03-23T18:13:34;99274.78;;;10.73;100.00
67052;BME280;53957;47.222;18.670;2024-03-23T18:16:36;99259.63;;;10.28;100.00
67052;BME280;53957;47.222;18.670;2024-03-23T18:19:38;99262.37;;;10.23;100.00
67052;BME280;53957;47.222;18.670;2024-03-23T18:22:40;99254.78;;;10.08;100.00
67052;BME280;53957;47.222;18.670;2024-03-23T18:25:58;99274.12;;;9.99;100.00
67052;BME280;53957;47.222;18.670;2024-03-23T18:29:01;99278.72;;;9.85;100.00
67052;BME280;53957;47.222;18.670;2024-03-23T18:32:04;99270.09;;;9.65;100.00
67052;BME280;53957;47.222;18.670;2024-03-23T18:35:07;99258.28;;;9.58;100.00
67052;BME280;53957;47.222;18.670;2024-03-23T18:38:12;99281.94;;;9.45;100.00
67052;BME280;53957;47.222;18.670;2024-03-23T18:41:14;99239.50;;;9.26;100.00
67052;BME280;53957;47.222;18.670;2024-03-23T18:44:16;99250.44;;;9.11;100.00
67052;BME280;53957;47.222;18.670;2024-03-23T18:47:19;99245.03;;;9.02;100.00
67052;BME280;53957;47.222;18.670;2024-03-23T18:50:21;99241.09;;;8.99;100.00
67052;BME280;53957;47.222;18.670;2024-03-23T18:53:23;99231.13;;;8.91;100.00
67052;BME280;53957;47.222;18.670;2024-03-23T18:56:26;99216.25;;;8.90;100.00
67052;BME280;53957;47.222;18.670;2024-03-23T18:59:28;99240.19;;;8.90;100.00
67052;BME280;53957;47.222;18.670;2024-03-23T19:02:30;99222.28;;;8.82;100.00
67052;BME280;53957;47.222;18.670;2024-03-23T19:05:32;99226.69;;;8.73;100.00
67052;BME280;53957;47.222;18.670;2024-03-23T19:08:34;99255.06;;;8.63;100.00
67052;BME280;53957;47.222;18.670;2024-03-23T19:11:37;99258.69;;;8.53;100.00
67052;BME280;53957;47.222;18.670;2024-03-23T19:14:39;99260.16;;;8.41;100.00
67052;BME280;53957;47.222;18.670;2024-03-23T19:17:42;99261.94;;;8.31;100.00
67052;BME280;53957;47.222;18.670;2024-03-23T19:20:55;99284.69;;;8.18;100.00
67052;BME280;53957;47.222;18.670;2024-03-23T19:24:00;99279.50;;;7.94;100.00
67052;BME280;53957;47.222;18.670;2024-03-23T19:27:03;99295.78;;;7.87;100.00
67052;BME280;53957;47.222;18.670;2024-03-23T19:30:07;99299.41;;;7.72;100.00
67052;BME280;53957;47.222;18.670;2024-03-23T19:33:11;99293.88;;;7.50;100.00
67052;BME280;53957;47.222;18.670;2024-03-23T19:36:13;99301.53;;;7.32;100.00
67052;BME280;53957;47.222;18.670;2024-03-23T19:39:15;99316.13;;;7.05;100.00
67052;BME280;53957;47.222;18.670;2024-03-23T19:42:17;99317.06;;;6.90;100.00
67052;BME280;53957;47.222;18.670;2024-03-23T19:45:23;99329.03;;;6.88;100.00
67052;BME280;53957;47.222;18.670;2024-03-23T19:48:25;99339.41;;;6.84;100.00
67052;BME280;53957;47.222;18.670;2024-03-23T19:51:27;99345.47;;;6.85;100.00
67052;BME280;53957;47.222;18.670;2024-03-23T19:54:29;99344.47;;;6.81;100.00
67052;BME280;53957;47.222;18.670;2024-03-23T19:57:30;99358.78;;;6.80;100.00
67052;BME280;53957;47.222;18.670;2024-03-23T20:00:32;99355.59;;;6.77;100.00
67052;BME280;53957;47.222;18.670;2024-03-23T20:03:35;99361.47;;;6.74;100.00
67052;BME280;53957;47.222;18.670;2024-03-23T20:06:37;99352.47;;;6.75;100.00
67052;BME280;53957;47.222;18.670;2024-03-23T20:09:41;99364.41;;;6.73;100.00
67052;BME280;53957;47.222;18.670;2024-03-23T20:12:43;99370.44;;;6.79;100.00
67052;BME280;53957;47.222;18.670;2024-03-23T20:15:52;99377.19;;;6.66;100.00
67052;BME280;53957;47.222;18.670;2024-03-23T20:18:56;99386.22;;;6.59;100.00
67052;BME280;53957;47.222;18.670;2024-03-23T20:21:59;99373.75;;;6.60;100.00
67052;BME280;53957;47.222;18.670;2024-03-23T20:25:04;99376.25;;;6.46;100.00
67052;BME280;53957;47.222;18.670;2024-03-23T20:28:06;99374.50;;;6.31;100.00
67052;BME280;53957;47.222;18.670;2024-03-23T20:31:09;99364.69;;;6.32;100.00
67052;BME280;53957;47.222;18.670;2024-03-23T20:34:11;99353.81;;;6.33;100.00
67052;BME280;53957;47.222;18.670;2024-03-23T20:37:13;99350.38;;;6.33;100.00
67052;BME280;53957;47.222;18.670;2024-03-23T20:40:15;99355.34;;;6.39;100.00
67052;BME280;53957;47.222;18.670;2024-03-23T20:43:17;99356.94;;;6.40;100.00
67052;BME280;53957;47.222;18.670;2024-03-23T20:46:19;99345.84;;;6.38;100.00
67052;BME280;53957;47.222;18.670;2024-03-23T21:15:14;99331.91;;;6.62;100.00
67052;BME280;53957;47.222;18.670;2024-03-23T21:18:17;99346.97;;;6.67;100.00
67052;BME280;53957;47.222;18.670;2024-03-23T21:21:20;99340.38;;;6.59;100.00
67052;BME280;53957;47.222;18.670;2024-03-23T21:24:22;99347.66;;;6.77;100.00
67052;BME280;53957;47.222;18.670;2024-03-23T21:27:25;99350.12;;;6.69;100.00
67052;BME280;53957;47.222;18.670;2024-03-23T21:30:27;99349.19;;;6.84;100.00
67052;BME280;53957;47.222;18.670;2024-03-23T21:33:29;99340.03;;;6.71;100.00
67052;BME280;53957;47.222;18.670;2024-03-23T21:36:31;99341.91;;;6.65;100.00
67052;BME280;53957;47.222;18.670;2024-03-23T21:39:34;99331.28;;;6.70;100.00
67052;BME280;53957;47.222;18.670;2024-03-23T21:42:36;99324.97;;;6.66;100.00
67052;BME280;53957;47.222;18.670;2024-03-23T21:45:38;99316.00;;;6.62;100.00
67052;BME280;53957;47.222;18.670;2024-03-23T21:48:40;99319.44;;;6.63;100.00
67052;BME280;53957;47.222;18.670;2024-03-23T21:51:42;99341.03;;;6.75;100.00
67052;BME280;53957;47.222;18.670;2024-03-23T21:54:45;99370.97;;;6.81;100.00
67052;BME280;53957;47.222;18.670;2024-03-23T21:57:47;99379.09;;;6.89;100.00
67052;BME280;53957;47.222;18.670;2024-03-23T22:00:51;99393.38;;;6.93;100.00
67052;BME280;53957;47.222;18.670;2024-03-23T22:03:54;99401.56;;;6.97;100.00
67052;BME280;53957;47.222;18.670;2024-03-23T22:06:56;99428.03;;;7.02;100.00
67052;BME280;53957;47.222;18.670;2024-03-23T22:09:58;99425.81;;;7.15;100.00
67052;BME280;53957;47.222;18.670;2024-03-23T22:13:00;99443.06;;;7.12;100.00
67052;BME280;53957;47.222;18.670;2024-03-23T22:16:02;99441.81;;;7.04;100.00
67052;BME280;53957;47.222;18.670;2024-03-23T22:19:05;99445.47;;;7.14;100.00
67052;BME280;53957;47.222;18.670;2024-03-23T22:22:07;99433.69;;;7.25;100.00
67052;BME280;53957;47.222;18.670;2024-03-23T22:25:09;99435.06;;;7.17;100.00
67052;BME280;53957;47.222;18.670;2024-03-23T22:28:12;99416.13;;;7.29;100.00
67052;BME280;53957;47.222;18.670;2024-03-23T22:31:13;99393.91;;;7.25;100.00
67052;BME280;53957;47.222;18.670;2024-03-23T22:34:15;99381.28;;;7.12;100.00
67052;BME280;53957;47.222;18.670;2024-03-23T22:37:17;99385.78;;;7.11;100.00
67052;BME280;53957;47.222;18.670;2024-03-23T22:40:20;99371.62;;;7.26;100.00
67052;BME280;53957;47.222;18.670;2024-03-23T22:43:23;99353.66;;;7.18;100.00
67052;BME280;53957;47.222;18.670;2024-03-23T22:46:25;99345.19;;;7.16;100.00
67052;BME280;53957;47.222;18.670;2024-03-23T22:49:27;99362.69;;;7.17;100.00
67052;BME280;53957;47.222;18.670;2024-03-23T22:52:29;99356.81;;;7.20;100.00
67052;BME280;53957;47.222;18.670;2024-03-23T22:55:31;99345.69;;;7.18;100.00
67052;BME280;53957;47.222;18.670;2024-03-23T22:58:33;99351.94;;;7.32;100.00
67052;BME280;53957;47.222;18.670;2024-03-23T23:01:35;99362.91;;;7.20;100.00
67052;BME280;53957;47.222;18.670;2024-03-23T23:04:38;99357.72;;;7.10;100.00
67052;BME280;53957;47.222;18.670;2024-03-23T23:07:39;99344.34;;;7.20;100.00
67052;BME280;53957;47.222;18.670;2024-03-23T23:10:45;99329.81;;;7.42;100.00
67052;BME280;53957;47.222;18.670;2024-03-23T23:13:48;99332.09;;;7.24;100.00
67052;BME280;53957;47.222;18.670;2024-03-23T23:16:51;99348.47;;;7.32;100.00
67052;BME280;53957;47.222;18.670;2024-03-23T23:19:52;99339.06;;;7.45;100.00
67052;BME280;53957;47.222;18.670;2024-03-23T23:22:54;99325.81;;;7.39;100.00
67052;BME280;53957;47.222;18.670;2024-03-23T23:25:57;99335.72;;;7.34;100.00
67052;BME280;53957;47.222;18.670;2024-03-23T23:28:59;99340.56;;;7.51;100.00
67052;BME280;53957;47.222;18.670;2024-03-23T23:32:02;99331.72;;;7.36;100.00
67052;BME280;53957;47.222;18.670;2024-03-23T23:35:04;99333.16;;;7.48;100.00
67052;BME280;53957;47.222;18.670;2024-03-23T23:38:06;99338.66;;;7.32;100.00
67052;BME280;53957;47.222;18.670;2024-03-23T23:41:08;99320.19;;;7.22;100.00
67052;BME280;53957;47.222;18.670;2024-03-23T23:44:10;99300.87;;;7.40;100.00
67052;BME280;53957;47.222;18.670;2024-03-23T23:47:12;99276.63;;;7.28;100.00
67052;BME280;53957;47.222;18.670;2024-03-23T23:50:14;99250.84;;;7.34;100.00
67052;BME280;53957;47.222;18.670;2024-03-23T23:53:16;99250.75;;;7.39;100.00
67052;BME280;53957;47.222;18.670;2024-03-23T23:56:18;99255.97;;;7.25;100.00
67052;BME280;53957;47.222;18.670;2024-03-23T23:59:20;99244.19;;;7.12;100.00
